createdAt,value
2023-03-16T01:03:25.463Z,1.00
2023-03-16T01:08:31.196Z,0.90
2023-03-16T01:13:36.676Z,0.80
2023-03-16T01:18:44.195Z,0.70
2023-03-16T01:23:50.127Z,0.90
2023-03-16T01:28:55.069Z,0.80
2023-03-16T01:34:03.908Z,0.90
2023-03-16T01:39:09.332Z,0.80
2023-03-16T01:44:21.924Z,0.90
2023-03-16T01:49:33.515Z,0.90
2023-03-16T01:54:45.740Z,0.90
2023-03-16T01:59:53.099Z,1.00
2023-03-16T02:05:06.581Z,0.90
2023-03-16T02:10:15.026Z,1.00
2023-03-16T02:15:20.429Z,1.00
2023-03-16T02:20:38.255Z,0.90
2023-03-16T02:25:57.325Z,1.00
2023-03-16T02:31:12.900Z,0.90
2023-03-16T02:36:20.244Z,0.90
2023-03-16T02:41:25.677Z,0.90
2023-03-16T02:46:37.586Z,0.90
2023-03-16T02:51:45.624Z,0.90
2023-03-16T02:56:50.907Z,0.90
2023-03-16T03:01:59.699Z,0.90
2023-03-16T03:07:04.228Z,0.90
2023-03-16T03:12:16.751Z,0.90
2023-03-16T03:17:24.176Z,0.90
2023-03-16T03:22:30.186Z,0.90
2023-03-16T03:27:37.374Z,0.90
2023-03-16T03:32:51.441Z,0.90
2023-03-16T03:37:57.061Z,1.00
2023-03-16T03:43:02.521Z,1.00
2023-03-16T03:48:12.010Z,0.90
2023-03-16T03:53:17.514Z,0.90
2023-03-16T03:58:56.535Z,0.90
2023-03-16T04:04:24.052Z,0.80
2023-03-16T04:09:27.478Z,0.70
2023-03-16T04:14:33.253Z,0.60
2023-03-16T04:19:40.119Z,0.60
2023-03-16T04:24:47.277Z,0.60
2023-03-16T04:29:50.155Z,0.60
2023-03-16T04:34:54.068Z,0.80
2023-03-16T04:39:56.903Z,0.90
2023-03-16T04:44:59.859Z,0.90
2023-03-16T04:50:06.716Z,1.00
2023-03-16T04:55:09.853Z,1.00
2023-03-16T05:00:14.397Z,1.10
2023-03-16T05:05:24.678Z,1.20
2023-03-16T05:10:27.651Z,1.20
2023-03-16T05:15:31.029Z,1.10
2023-03-16T05:20:50.490Z,1.10
2023-03-16T05:25:53.307Z,1.00
2023-03-16T05:30:58.960Z,0.90
2023-03-16T05:36:06.192Z,0.90
2023-03-16T05:41:10.093Z,0.90
2023-03-16T05:46:27.748Z,0.90
2023-03-16T05:51:32.999Z,1.00
2023-03-16T05:56:38.060Z,0.90
2023-03-16T06:01:40.717Z,0.90
2023-03-16T06:06:45.255Z,1.00
2023-03-16T06:11:56.564Z,1.10
2023-03-16T06:16:59.439Z,1.20
2023-03-16T06:22:03.703Z,1.30
2023-03-16T06:27:06.972Z,1.30
2023-03-16T06:32:20.283Z,1.50
2023-03-16T06:37:24.779Z,1.60
2023-03-16T06:42:27.816Z,1.70
2023-03-16T06:47:32.116Z,1.70
2023-03-16T06:52:37.426Z,1.90
2023-03-16T06:57:40.905Z,1.80
2023-03-16T07:02:47.307Z,1.80
2023-03-16T07:07:59.030Z,1.80
2023-03-16T07:13:03.445Z,1.80
2023-03-16T07:18:06.840Z,2.00
2023-03-16T07:23:13.855Z,2.10
2023-03-16T07:28:21.063Z,2.10
2023-03-16T07:33:26.721Z,2.20
2023-03-16T07:38:35.333Z,2.00
2023-03-16T07:43:41.546Z,2.20
2023-03-16T07:49:41.225Z,2.40
2023-03-16T07:55:01.953Z,2.40
2023-03-16T08:00:07.139Z,2.70
2023-03-16T08:05:21.107Z,2.60
2023-03-16T08:10:38.439Z,2.90
2023-03-16T08:15:55.093Z,3.10
2023-03-16T08:21:57.487Z,3.20
2023-03-16T08:26:48.128Z,3.30
2023-03-16T08:32:00.057Z,3.50
2023-03-16T08:37:12.303Z,4.10
2023-03-16T08:42:21.344Z,4.10
2023-03-16T08:47:34.500Z,4.30
2023-03-16T08:52:37.905Z,4.40
2023-03-16T08:58:07.341Z,4.50
2023-03-16T09:04:14.269Z,4.60
2023-03-16T09:16:11.182Z,4.60
2023-03-16T09:27:51.444Z,4.40
2023-03-16T09:33:11.784Z,4.80
2023-03-16T09:38:22.552Z,5.00
2023-03-16T10:04:20.028Z,5.20
2023-03-16T10:15:24.212Z,4.90
2023-03-16T10:20:35.039Z,4.90
2023-03-16T10:25:56.013Z,5.00
2023-03-16T10:31:05.734Z,5.10
2023-03-16T10:36:29.572Z,5.10
2023-03-16T10:41:56.171Z,5.00
2023-03-16T10:47:26.185Z,5.10
2023-03-16T10:52:59.398Z,5.30
2023-03-16T10:58:22.806Z,5.60
2023-03-16T11:03:51.009Z,5.80
2023-03-16T11:09:07.050Z,6.00
2023-03-16T11:14:47.837Z,5.60
2023-03-16T11:20:04.872Z,5.80
2023-03-16T11:25:29.117Z,5.90
2023-03-16T11:31:25.058Z,5.80
2023-03-16T11:36:52.919Z,5.80
2023-03-16T11:42:16.395Z,5.80
2023-03-16T11:48:24.691Z,5.80
2023-03-16T12:00:01.122Z,6.00
2023-03-16T12:12:29.406Z,6.30
2023-03-16T12:17:37.446Z,6.40
2023-03-16T12:22:57.768Z,6.30
2023-03-16T12:28:30.326Z,6.40
2023-03-16T12:34:39.499Z,6.50
2023-03-16T12:41:11.667Z,6.50
2023-03-16T12:53:24.874Z,6.40
2023-03-16T12:58:31.600Z,6.70
2023-03-16T13:03:38.437Z,6.70
2023-03-16T13:08:53.672Z,6.70
2023-03-16T13:14:17.810Z,6.30
2023-03-16T13:19:34.424Z,6.00
2023-03-16T13:24:54.341Z,5.30
2023-03-16T13:30:25.464Z,5.00
2023-03-16T13:35:32.518Z,5.60
2023-03-16T13:41:08.961Z,5.20
2023-03-16T13:46:28.952Z,5.50
2023-03-16T13:51:39.237Z,5.60
2023-03-16T13:56:43.692Z,6.20
2023-03-16T14:01:49.025Z,6.40
2023-03-16T14:07:03.030Z,6.20
2023-03-16T14:12:26.402Z,5.60
2023-03-16T14:17:31.340Z,5.70
2023-03-16T14:22:37.841Z,6.00
2023-03-16T14:28:01.630Z,5.90
2023-03-16T14:33:29.044Z,6.10
2023-03-16T14:38:35.477Z,6.20
2023-03-16T14:43:50.660Z,6.00
2023-03-16T14:49:10.041Z,5.80
2023-03-16T14:54:15.613Z,5.90
2023-03-16T14:59:19.282Z,6.00
2023-03-16T15:04:29.306Z,5.20
2023-03-16T15:09:36.673Z,4.80
2023-03-16T15:14:39.244Z,4.10
2023-03-16T15:19:43.522Z,4.20
2023-03-16T15:24:46.002Z,4.30
2023-03-16T15:29:48.611Z,4.40
2023-03-16T15:34:52.587Z,4.60
2023-03-16T15:39:55.119Z,5.00
2023-03-16T15:44:57.793Z,5.30
2023-03-16T15:50:01.899Z,5.40
2023-03-16T15:55:05.286Z,5.00
2023-03-16T16:00:28.058Z,4.70
2023-03-16T16:05:33.569Z,4.70
2023-03-16T16:10:36.316Z,4.80
2023-03-16T16:15:41.843Z,4.90
2023-03-16T16:20:46.317Z,4.90
2023-03-16T16:25:50.129Z,4.60
2023-03-16T16:30:52.978Z,4.20
2023-03-16T16:35:59.968Z,3.90
2023-03-16T16:41:08.159Z,3.70
2023-03-16T16:46:15.248Z,4.00
2023-03-16T16:51:22.173Z,4.00
2023-03-16T16:56:29.167Z,3.80
2023-03-16T17:01:34.148Z,3.50
2023-03-16T17:06:38.120Z,3.40
2023-03-16T17:11:43.650Z,3.40
2023-03-16T17:16:47.594Z,3.50
2023-03-16T17:21:53.055Z,3.30
2023-03-16T17:26:59.056Z,3.30
2023-03-16T17:32:04.338Z,3.40
2023-03-16T17:37:20.777Z,3.60
2023-03-16T17:42:23.421Z,3.40
2023-03-16T17:47:31.558Z,3.50
2023-03-16T17:52:35.682Z,3.50
2023-03-16T17:57:38.565Z,3.40
2023-03-16T18:02:49.425Z,3.50
2023-03-16T18:07:56.841Z,3.50
2023-03-16T18:13:05.084Z,3.50
2023-03-16T18:18:14.914Z,3.50
2023-03-16T18:23:21.886Z,3.50
2023-03-16T18:28:24.645Z,3.50
2023-03-16T18:33:31.784Z,3.40
2023-03-16T18:38:39.664Z,3.40
2023-03-16T18:43:42.310Z,3.30
2023-03-16T18:48:44.977Z,3.40
2023-03-16T18:53:49.175Z,3.00
2023-03-16T18:58:53.829Z,3.00
2023-03-16T19:03:59.106Z,3.10
2023-03-16T19:09:12.760Z,3.10
2023-03-16T19:14:21.393Z,3.10
2023-03-16T19:19:24.414Z,3.00
2023-03-16T19:24:34.113Z,2.90
2023-03-16T19:29:36.630Z,2.90
2023-03-16T19:34:39.101Z,2.80
2023-03-16T19:39:46.566Z,2.80
2023-03-16T19:44:50.642Z,2.70
2023-03-16T19:49:53.370Z,2.60
2023-03-16T19:54:57.883Z,2.60
2023-03-16T20:00:00.405Z,2.60
2023-03-16T20:05:03.069Z,2.60
2023-03-16T20:10:08.797Z,2.40
2023-03-16T20:15:16.286Z,2.30
2023-03-16T20:20:25.665Z,2.30
2023-03-16T20:25:32.388Z,2.30
2023-03-16T20:30:35.092Z,2.30
2023-03-16T20:35:37.667Z,2.20
2023-03-16T20:40:44.120Z,2.00
2023-03-16T20:45:46.664Z,2.00
2023-03-16T20:50:52.440Z,1.80
2023-03-16T20:55:56.938Z,1.80
2023-03-16T21:00:59.507Z,1.80
2023-03-16T21:06:02.050Z,1.80
2023-03-16T21:11:23.728Z,1.70
2023-03-16T21:16:26.412Z,1.70
2023-03-16T21:21:28.822Z,1.60
2023-03-16T21:26:33.156Z,1.40
2023-03-16T21:31:35.843Z,1.40
2023-03-16T21:36:38.268Z,1.40
2023-03-16T21:41:42.141Z,1.30
2023-03-16T21:46:44.795Z,1.30
2023-03-16T21:51:48.956Z,1.30
2023-03-16T21:56:53.051Z,1.30
2023-03-16T22:02:02.026Z,1.30
2023-03-16T22:07:11.571Z,1.10
2023-03-16T22:12:15.980Z,1.10
2023-03-16T22:17:22.424Z,1.10
2023-03-16T22:22:25.244Z,1.10
2023-03-16T22:27:29.161Z,1.00
2023-03-16T22:32:31.783Z,0.90
2023-03-16T22:37:34.454Z,0.80
2023-03-16T22:42:39.659Z,0.70
2023-03-16T22:47:42.187Z,0.50
2023-03-16T22:52:47.607Z,0.40
2023-03-16T22:58:03.104Z,0.40
2023-03-16T23:03:12.378Z,0.30
2023-03-16T23:08:17.651Z,0.20
2023-03-16T23:13:25.840Z,0.20
2023-03-16T23:18:28.380Z,0.10
2023-03-16T23:23:30.806Z,0.10
2023-03-16T23:28:37.437Z,0.20
2023-03-16T23:33:40.312Z,0.30
2023-03-16T23:38:47.916Z,0.20
2023-03-16T23:43:53.016Z,0.30
2023-03-16T23:48:58.972Z,0.20
2023-03-16T23:54:02.068Z,0.30
2023-03-16T23:59:06.332Z,0.30
